logo
Search for airport 
image banner adimage banner adimage banner ad
image banner ad

YWYY - Wynyard

Located in Wynyard, Australia

ICAO - YWYY, IATA - BWT

Data provided by Airmate  

General information

Coordinates: S40°59'56" E145°43'52"
Elevation is 62 feet MSL.
 
View others Airports in Tasmania

Operational data

Special qualification required
Current time UTC:
Current local time:
Weather at : - ( 0 km )
METAR: UWKD 172007Z 26013G18MPS 220V290 0650 0600SW R29/1500U +TSRA BKN010CB 18/17 Q1019 WS R29 R29/2/0050 NOSIG RMK QFE753/1005
View NOTAMs / SUP AIP / TFR affecting this airport [VIEW]
Communications frequencies: [VIEW]

Runways:

RWY identifierQFULength (ft)Width (ft)SurfaceLDA (ft)
0565°271359GVL
23245°271359GVL
0999°541398ASP
27279°541398ASP

Airport contact information

Address: Wynyard Australia

Satellite view of YWYY